createdAt,value
2022-08-26T00:00:51.887Z,6.57
2022-08-26T00:03:20.925Z,6.50
2022-08-26T00:05:52.244Z,6.93
2022-08-26T00:08:21.396Z,6.50
2022-08-26T00:10:50.602Z,6.60
2022-08-26T00:13:22.010Z,6.50
2022-08-26T00:15:51.606Z,6.63
2022-08-26T00:18:22.877Z,6.37
2022-08-26T00:20:54.663Z,6.80
2022-08-26T00:23:24.265Z,6.13
2022-08-26T00:25:52.989Z,6.37
2022-08-26T00:28:22.345Z,6.47
2022-08-26T00:30:52.089Z,6.17
2022-08-26T00:33:23.219Z,6.20
2022-08-26T00:35:51.684Z,6.73
2022-08-26T00:38:24.962Z,6.63
2022-08-26T00:40:55.467Z,6.43
2022-08-26T00:43:30.908Z,6.90
2022-08-26T00:46:22.888Z,6.97
2022-08-26T00:48:59.565Z,6.07
2022-08-26T00:51:29.772Z,6.03
2022-08-26T00:54:05.606Z,7.07
2022-08-26T00:56:38.606Z,6.80
2022-08-26T00:59:11.349Z,6.73
2022-08-26T01:01:47.050Z,6.63
2022-08-26T01:04:19.311Z,6.53
2022-08-26T01:06:53.565Z,7.00
2022-08-26T01:09:23.414Z,6.90
2022-08-26T01:11:55.342Z,6.93
2022-08-26T01:14:25.831Z,6.90
2022-08-26T01:16:57.551Z,6.17
2022-08-26T01:19:30.760Z,6.70
2022-08-26T01:22:06.454Z,6.97
2022-08-26T01:24:36.283Z,6.50
2022-08-26T01:27:08.089Z,6.63
2022-08-26T01:29:43.593Z,7.00
2022-08-26T01:32:15.297Z,7.10
2022-08-26T01:34:48.311Z,6.43
2022-08-26T01:37:19.619Z,6.90
2022-08-26T01:39:52.765Z,6.90
2022-08-26T01:42:23.802Z,6.77
2022-08-26T01:45:00.049Z,5.90
2022-08-26T01:47:30.844Z,6.50
2022-08-26T01:50:00.858Z,6.97
2022-08-26T01:52:33.930Z,5.97
2022-08-26T01:55:03.558Z,6.90
2022-08-26T01:57:32.320Z,6.33
2022-08-26T02:00:02.860Z,6.40
2022-08-26T02:02:31.047Z,6.00
2022-08-26T02:05:05.428Z,6.33
2022-08-26T02:07:34.533Z,6.67
2022-08-26T02:10:06.998Z,6.70
2022-08-26T02:12:35.317Z,6.53
2022-08-26T02:15:11.148Z,6.13
2022-08-26T02:17:42.090Z,6.77
2022-08-26T02:20:16.770Z,6.87
2022-08-26T02:22:46.017Z,6.53
2022-08-26T02:25:20.737Z,6.97
2022-08-26T02:27:49.161Z,6.40
2022-08-26T02:30:19.909Z,7.03
2022-08-26T02:32:49.592Z,6.90
2022-08-26T02:35:20.508Z,6.43
2022-08-26T02:37:50.030Z,6.77
2022-08-26T02:40:26.815Z,6.50
2022-08-26T02:42:55.997Z,6.57
2022-08-26T02:45:26.246Z,6.23
2022-08-26T02:47:56.261Z,7.37
2022-08-26T02:50:25.611Z,6.23
2022-08-26T02:52:56.741Z,6.13
2022-08-26T02:55:27.263Z,5.97
2022-08-26T02:57:58.656Z,6.80
2022-08-26T03:00:27.227Z,6.10
2022-08-26T03:02:58.198Z,6.40
2022-08-26T03:05:26.439Z,6.30
2022-08-26T03:07:54.631Z,6.70
2022-08-26T03:10:27.470Z,7.00
2022-08-26T03:12:56.128Z,6.57
2022-08-26T03:15:27.691Z,6.33
2022-08-26T03:17:56.382Z,6.00
2022-08-26T03:20:25.414Z,6.67
2022-08-26T03:22:53.522Z,6.90
2022-08-26T03:25:25.740Z,7.50
2022-08-26T03:27:55.264Z,6.60
2022-08-26T03:30:44.836Z,6.57
2022-08-26T03:33:17.473Z,6.70
2022-08-26T03:35:47.852Z,6.40
2022-08-26T03:38:25.256Z,6.73
2022-08-26T03:40:53.370Z,6.30
2022-08-26T03:43:26.679Z,6.50
2022-08-26T03:45:54.825Z,7.00
2022-08-26T03:48:22.870Z,6.47
2022-08-26T03:50:51.473Z,7.33
2022-08-26T03:53:25.422Z,6.77
2022-08-26T03:55:54.024Z,6.93
2022-08-26T03:58:26.567Z,7.00
2022-08-26T04:00:55.600Z,6.83
2022-08-26T04:03:38.141Z,7.00
2022-08-26T04:06:06.917Z,7.43
2022-08-26T04:08:35.006Z,7.07
2022-08-26T04:11:07.029Z,6.90
2022-08-26T04:13:36.632Z,6.97
2022-08-26T04:16:08.136Z,6.90
2022-08-26T04:18:46.477Z,7.07
2022-08-26T04:21:15.590Z,8.03
2022-08-26T04:23:47.737Z,7.33
2022-08-26T04:26:16.719Z,7.83
2022-08-26T04:28:46.272Z,7.40
2022-08-26T04:31:16.216Z,7.10
2022-08-26T04:33:45.200Z,7.40
2022-08-26T04:36:15.112Z,7.30
2022-08-26T04:38:43.242Z,6.57
2022-08-26T04:41:17.075Z,7.47
2022-08-26T04:43:47.603Z,7.00
2022-08-26T04:46:22.712Z,7.93
2022-08-26T04:48:52.344Z,8.20
2022-08-26T04:51:27.966Z,8.13
2022-08-26T04:53:57.226Z,7.37
2022-08-26T04:56:26.324Z,7.73
2022-08-26T04:58:56.484Z,6.93
2022-08-26T05:01:24.683Z,7.37
2022-08-26T05:03:53.033Z,7.30
2022-08-26T05:06:21.168Z,7.63
2022-08-26T05:08:53.129Z,7.90
2022-08-26T05:11:22.142Z,7.53
2022-08-26T05:13:53.243Z,7.40
2022-08-26T05:16:22.862Z,8.10
2022-08-26T05:18:54.023Z,7.37
2022-08-26T05:21:24.426Z,7.40
2022-08-26T05:23:55.981Z,8.20
2022-08-26T05:26:27.479Z,7.97
2022-08-26T05:28:57.271Z,8.07
2022-08-26T05:31:29.155Z,7.00
2022-08-26T05:33:57.847Z,7.83
2022-08-26T05:36:28.272Z,7.80
2022-08-26T05:38:59.443Z,8.17
2022-08-26T05:41:36.173Z,7.67
2022-08-26T05:44:08.641Z,8.63
2022-08-26T05:46:41.114Z,9.27
2022-08-26T05:49:12.658Z,8.97
2022-08-26T05:51:44.301Z,10.17
2022-08-26T05:54:12.428Z,10.00
2022-08-26T05:56:45.523Z,9.67
2022-08-26T05:59:15.653Z,10.03
2022-08-26T06:01:49.413Z,9.80
2022-08-26T06:04:17.812Z,8.57
2022-08-26T06:06:51.387Z,10.27
2022-08-26T06:09:19.490Z,10.47
2022-08-26T06:11:48.057Z,9.60
2022-08-26T06:14:17.265Z,9.47
2022-08-26T06:16:48.041Z,7.90
2022-08-26T06:19:21.549Z,9.67
2022-08-26T06:21:54.898Z,10.23
2022-08-26T06:24:42.600Z,10.07
2022-08-26T06:27:13.655Z,8.87
2022-08-26T06:29:45.050Z,10.73
2022-08-26T06:32:14.900Z,10.50
2022-08-26T06:34:42.996Z,9.77
2022-08-26T06:37:11.164Z,9.73
2022-08-26T06:39:40.180Z,9.57
2022-08-26T06:42:12.604Z,9.73
2022-08-26T06:44:41.673Z,9.50
2022-08-26T06:47:17.338Z,8.87
2022-08-26T06:49:45.421Z,9.20
2022-08-26T06:52:21.194Z,8.47
2022-08-26T06:54:53.073Z,8.03
2022-08-26T06:57:21.425Z,9.13
2022-08-26T06:59:51.088Z,8.63
2022-08-26T07:02:23.556Z,9.80
2022-08-26T07:04:56.794Z,8.27
2022-08-26T07:07:25.112Z,9.27
2022-08-26T07:09:53.505Z,10.10
2022-08-26T07:12:24.672Z,9.73
2022-08-26T07:14:53.459Z,10.00
2022-08-26T07:17:25.088Z,10.40
2022-08-26T07:19:54.646Z,11.03
2022-08-26T07:22:22.756Z,11.27
2022-08-26T07:24:55.334Z,10.63
2022-08-26T07:27:23.884Z,11.47
2022-08-26T07:29:58.396Z,10.33
2022-08-26T07:32:27.931Z,10.90
2022-08-26T07:34:56.040Z,11.33
2022-08-26T07:37:25.111Z,9.53
2022-08-26T07:39:53.337Z,10.90
2022-08-26T07:42:21.880Z,10.30
2022-08-26T07:44:50.334Z,12.57
2022-08-26T07:47:24.770Z,12.43
2022-08-26T07:49:57.403Z,11.73
2022-08-26T07:52:29.907Z,12.57
2022-08-26T07:54:59.569Z,11.23
2022-08-26T07:57:31.028Z,13.53
2022-08-26T07:59:59.822Z,12.73
2022-08-26T08:02:33.026Z,11.57
2022-08-26T08:05:04.719Z,10.57
2022-08-26T08:07:44.926Z,11.20
2022-08-26T08:10:20.978Z,9.43
2022-08-26T08:12:50.234Z,9.30
2022-08-26T08:15:25.016Z,10.67
2022-08-26T08:17:54.783Z,11.30
2022-08-26T08:20:27.538Z,11.30
2022-08-26T08:22:56.102Z,9.90
2022-08-26T08:25:29.190Z,11.53
2022-08-26T08:27:57.483Z,10.30
2022-08-26T08:30:28.150Z,9.87
2022-08-26T08:32:57.037Z,9.10
2022-08-26T08:35:29.431Z,8.93
2022-08-26T08:37:58.109Z,10.33
2022-08-26T08:40:28.161Z,10.43
2022-08-26T08:43:04.839Z,9.87
2022-08-26T08:45:39.587Z,10.10
2022-08-26T08:48:14.745Z,10.13
2022-08-26T08:50:50.244Z,9.73
2022-08-26T08:53:22.684Z,9.20
2022-08-26T08:56:04.154Z,9.60
2022-08-26T08:58:52.584Z,8.47
2022-08-26T09:01:39.861Z,8.57
2022-08-26T09:04:29.633Z,9.00
2022-08-26T09:07:00.976Z,8.10
2022-08-26T09:09:35.610Z,10.10
2022-08-26T09:12:07.709Z,8.57
2022-08-26T09:14:37.360Z,8.90
2022-08-26T09:17:17.744Z,7.37
2022-08-26T09:19:53.743Z,7.67
2022-08-26T09:22:39.103Z,7.23
2022-08-26T09:25:17.351Z,7.27
2022-08-26T09:27:50.295Z,7.70
2022-08-26T09:30:26.423Z,7.60
2022-08-26T09:33:35.172Z,8.13
2022-08-26T09:36:41.431Z,7.57
2022-08-26T09:39:37.834Z,7.93
2022-08-26T09:42:10.615Z,8.33
2022-08-26T09:45:10.483Z,8.40
2022-08-26T09:47:54.546Z,8.50
2022-08-26T09:50:38.044Z,7.87
2022-08-26T09:53:25.252Z,8.40
2022-08-26T09:56:29.486Z,8.67
2022-08-26T09:59:06.504Z,8.30
2022-08-26T10:01:46.035Z,8.30
2022-08-26T10:04:24.048Z,8.27
2022-08-26T10:07:38.863Z,8.77
2022-08-26T10:13:38.614Z,8.47
2022-08-26T10:17:54.882Z,9.00
2022-08-26T10:19:20.244Z,8.70
2022-08-26T10:21:57.636Z,9.90
2022-08-26T10:24:32.391Z,9.17
2022-08-26T10:27:05.190Z,8.73
2022-08-26T10:29:40.849Z,9.20
2022-08-26T10:32:15.127Z,9.27
2022-08-26T10:34:46.014Z,9.20
2022-08-26T10:37:19.221Z,9.20
2022-08-26T10:39:58.566Z,9.17
2022-08-26T10:42:39.760Z,10.23
2022-08-26T10:45:16.271Z,8.77
2022-08-26T10:47:54.236Z,10.10
2022-08-26T10:50:32.262Z,9.13
2022-08-26T10:53:05.967Z,8.93
2022-08-26T10:55:41.825Z,9.07
2022-08-26T10:58:38.162Z,8.70
2022-08-26T11:01:41.925Z,9.13
2022-08-26T11:04:22.427Z,8.50
2022-08-26T11:06:52.173Z,9.83
2022-08-26T11:09:49.728Z,9.20
2022-08-26T11:12:52.167Z,9.33
2022-08-26T11:16:08.547Z,9.47
2022-08-26T11:18:48.839Z,10.13
2022-08-26T11:21:51.037Z,10.57
2022-08-26T11:25:11.530Z,9.13
2022-08-26T11:28:05.209Z,10.20
2022-08-26T11:30:45.970Z,10.10
2022-08-26T11:33:57.171Z,11.63
2022-08-26T11:36:45.339Z,11.07
2022-08-26T11:39:20.861Z,11.80
2022-08-26T11:41:52.607Z,11.97
2022-08-26T11:44:23.545Z,11.20
2022-08-26T11:47:00.309Z,12.10
2022-08-26T11:49:29.683Z,11.43
2022-08-26T11:52:17.103Z,12.57
2022-08-26T11:55:00.519Z,11.33
2022-08-26T11:57:31.683Z,10.83
2022-08-26T12:00:00.226Z,12.23
2022-08-26T12:02:29.199Z,12.30
2022-08-26T12:04:58.074Z,13.03
2022-08-26T12:07:30.337Z,13.37
2022-08-26T12:10:04.997Z,12.57
2022-08-26T12:12:36.151Z,13.73
2022-08-26T12:15:16.807Z,13.77
2022-08-26T12:17:54.634Z,12.50
2022-08-26T12:20:48.198Z,10.90
2022-08-26T12:23:25.995Z,11.43
2022-08-26T12:26:03.627Z,10.90
2022-08-26T12:28:32.245Z,10.13
2022-08-26T12:31:05.763Z,11.70
2022-08-26T12:33:35.957Z,11.40
2022-08-26T12:36:07.704Z,11.03
2022-08-26T12:38:40.374Z,10.47
2022-08-26T12:41:11.274Z,11.10
2022-08-26T12:43:43.687Z,12.70
2022-08-26T12:46:18.024Z,11.03
2022-08-26T12:48:50.094Z,11.73
2022-08-26T12:51:24.587Z,10.97
2022-08-26T12:53:57.015Z,10.80
2022-08-26T12:56:34.324Z,10.60
2022-08-26T12:59:05.398Z,10.87
2022-08-26T13:01:45.567Z,9.97
2022-08-26T13:04:37.221Z,10.23
2022-08-26T13:07:16.599Z,9.97
2022-08-26T13:09:48.738Z,10.47
2022-08-26T13:12:25.640Z,10.23
2022-08-26T13:14:58.718Z,9.07
2022-08-26T13:17:27.631Z,9.47
2022-08-26T13:20:04.119Z,8.57
2022-08-26T13:22:33.664Z,8.67
2022-08-26T13:25:03.303Z,7.73
2022-08-26T13:27:31.394Z,8.57
2022-08-26T13:30:02.751Z,8.90
2022-08-26T13:32:32.756Z,8.57
2022-08-26T13:35:05.680Z,8.63
2022-08-26T13:37:35.614Z,8.23
2022-08-26T13:40:09.519Z,8.40
2022-08-26T13:42:37.791Z,8.33
2022-08-26T13:45:17.951Z,8.63
2022-08-26T13:47:46.083Z,8.70
2022-08-26T13:50:17.145Z,9.50
2022-08-26T13:52:45.246Z,9.63
2022-08-26T13:55:15.608Z,8.53
2022-08-26T13:57:43.737Z,8.80
2022-08-26T14:00:13.115Z,8.30
2022-08-26T14:02:44.198Z,8.20
2022-08-26T14:05:12.576Z,8.63
2022-08-26T14:07:43.324Z,8.37
2022-08-26T14:10:12.655Z,8.40
2022-08-26T14:12:43.751Z,7.83
2022-08-26T14:15:12.978Z,8.20
2022-08-26T14:17:41.165Z,7.97
2022-08-26T14:20:13.107Z,7.50
2022-08-26T14:23:12.566Z,8.43
2022-08-26T14:25:39.143Z,8.10
2022-08-26T14:28:08.801Z,8.13
2022-08-26T14:30:40.219Z,7.73
2022-08-26T14:33:11.605Z,6.80
2022-08-26T14:35:47.994Z,7.17
2022-08-26T14:38:17.544Z,7.60
2022-08-26T14:40:46.719Z,7.27
2022-08-26T14:43:16.322Z,6.87
2022-08-26T14:45:48.186Z,7.43
2022-08-26T14:48:16.276Z,7.03
2022-08-26T14:50:44.473Z,7.50
2022-08-26T14:53:33.218Z,7.57
2022-08-26T14:56:01.494Z,7.07
2022-08-26T14:58:36.636Z,7.40
2022-08-26T15:01:04.821Z,7.93
2022-08-26T15:03:35.983Z,7.37
2022-08-26T15:06:04.244Z,7.33
2022-08-26T15:08:39.740Z,7.93
2022-08-26T15:11:07.845Z,7.80
2022-08-26T15:13:39.743Z,9.63
2022-08-26T15:16:08.191Z,9.03
2022-08-26T15:18:36.270Z,9.47
2022-08-26T15:21:05.317Z,9.30
2022-08-26T15:23:33.454Z,9.37
2022-08-26T15:26:01.860Z,9.30
2022-08-26T15:28:30.523Z,10.47
2022-08-26T15:31:00.612Z,10.57
2022-08-26T15:33:34.664Z,11.87
2022-08-26T15:36:03.480Z,12.43
2022-08-26T15:38:32.031Z,12.90
2022-08-26T15:41:05.742Z,12.10
2022-08-26T15:43:33.923Z,14.23
2022-08-26T15:46:04.750Z,14.57
2022-08-26T15:48:33.137Z,14.60
2022-08-26T15:51:02.516Z,15.47
2022-08-26T15:53:35.339Z,15.87
2022-08-26T15:56:05.283Z,16.37
2022-08-26T15:58:36.337Z,16.73
2022-08-26T16:01:05.751Z,15.13
2022-08-26T16:03:36.776Z,16.17
2022-08-26T16:06:05.298Z,17.23
2022-08-26T16:08:36.760Z,17.47
2022-08-26T16:11:05.851Z,15.87
2022-08-26T16:13:40.032Z,14.67
2022-08-26T16:16:10.025Z,16.03
2022-08-26T16:18:41.089Z,15.83
2022-08-26T16:21:13.359Z,15.23
2022-08-26T16:23:45.579Z,14.17
2022-08-26T16:26:15.587Z,7.23
2022-08-26T16:28:47.319Z,6.50
2022-08-26T16:31:17.328Z,5.00
2022-08-26T16:33:48.952Z,5.60
2022-08-26T16:36:17.317Z,5.23
2022-08-26T16:38:53.389Z,5.40
2022-08-26T16:41:21.539Z,4.90
2022-08-26T16:43:52.701Z,4.73
2022-08-26T16:46:25.603Z,4.47
2022-08-26T16:48:54.355Z,4.00
2022-08-26T16:51:24.612Z,4.00
2022-08-26T16:53:53.484Z,4.57
2022-08-26T16:56:23.853Z,4.53
2022-08-26T16:59:01.751Z,4.97
2022-08-26T17:01:31.255Z,4.63
2022-08-26T17:04:02.247Z,4.67
2022-08-26T17:06:30.764Z,4.57
2022-08-26T17:08:58.866Z,4.90
2022-08-26T17:11:30.726Z,4.97
2022-08-26T17:13:58.778Z,5.00
2022-08-26T17:16:29.291Z,4.93
2022-08-26T17:18:59.879Z,5.27
2022-08-26T17:21:29.466Z,4.97
2022-08-26T17:23:57.581Z,5.13
2022-08-26T17:26:25.962Z,4.83
2022-08-26T17:28:57.098Z,5.00
2022-08-26T17:31:25.971Z,5.30
2022-08-26T17:33:58.514Z,5.27
2022-08-26T17:36:28.468Z,5.40
2022-08-26T17:39:00.084Z,5.40
2022-08-26T17:41:28.668Z,4.70
2022-08-26T17:44:04.165Z,5.13
2022-08-26T17:46:34.183Z,5.87
2022-08-26T17:49:08.245Z,5.30
2022-08-26T17:51:36.293Z,5.47
2022-08-26T17:54:04.714Z,5.60
2022-08-26T17:56:32.905Z,6.50
2022-08-26T17:59:02.292Z,7.07
2022-08-26T18:01:35.121Z,6.90
2022-08-26T18:04:05.058Z,6.57
2022-08-26T18:06:34.158Z,6.13
2022-08-26T18:09:02.745Z,6.73
2022-08-26T18:11:32.034Z,6.03
2022-08-26T18:14:07.766Z,5.83
2022-08-26T18:16:38.366Z,5.70
2022-08-26T18:19:10.167Z,6.03
2022-08-26T18:21:38.323Z,5.97
2022-08-26T18:24:13.776Z,6.07
2022-08-26T18:26:48.285Z,5.93
2022-08-26T18:29:18.287Z,6.50
2022-08-26T18:31:46.576Z,6.40
2022-08-26T18:34:19.815Z,5.97
2022-08-26T18:36:48.855Z,5.90
2022-08-26T18:39:19.178Z,5.87
2022-08-26T18:41:53.302Z,6.13
2022-08-26T18:44:24.603Z,6.50
2022-08-26T18:46:53.485Z,5.93
2022-08-26T18:49:25.517Z,6.10
2022-08-26T18:51:54.121Z,6.13
2022-08-26T18:54:22.651Z,6.93
2022-08-26T18:56:51.024Z,6.57
2022-08-26T18:59:19.126Z,7.30
2022-08-26T19:01:54.883Z,6.60
2022-08-26T19:04:24.373Z,7.27
2022-08-26T19:06:53.200Z,7.23
2022-08-26T19:09:21.961Z,6.47
2022-08-26T19:11:51.165Z,6.20
2022-08-26T19:14:20.491Z,7.40
2022-08-26T19:16:49.900Z,7.37
2022-08-26T19:19:20.872Z,7.33
2022-08-26T19:21:50.627Z,7.00
2022-08-26T19:24:20.027Z,7.33
2022-08-26T19:26:51.406Z,7.87
2022-08-26T19:29:31.251Z,7.60
2022-08-26T19:31:59.418Z,7.73
2022-08-26T19:34:27.866Z,7.07
2022-08-26T19:36:58.379Z,7.10
2022-08-26T19:39:27.556Z,6.70
2022-08-26T19:42:00.337Z,7.40
2022-08-26T19:44:45.838Z,6.73
2022-08-26T19:47:14.709Z,7.07
2022-08-26T19:49:42.979Z,6.00
2022-08-26T19:52:12.679Z,6.90
2022-08-26T19:54:44.416Z,6.10
2022-08-26T19:57:12.511Z,5.73
2022-08-26T19:59:41.434Z,5.97
2022-08-26T20:02:11.202Z,6.27
2022-08-26T20:04:40.774Z,6.00
2022-08-26T20:07:18.605Z,5.50
2022-08-26T20:09:50.402Z,5.97
2022-08-26T20:12:18.949Z,6.03
2022-08-26T20:14:47.035Z,6.67
2022-08-26T20:17:19.378Z,5.87
2022-08-26T20:20:05.194Z,6.90
2022-08-26T20:22:34.846Z,6.60
2022-08-26T20:25:03.043Z,6.53
2022-08-26T20:27:38.118Z,5.57
2022-08-26T20:30:11.942Z,6.07
2022-08-26T20:32:41.550Z,5.97
2022-08-26T20:35:15.040Z,6.70
2022-08-26T20:37:44.608Z,6.30
2022-08-26T20:40:14.861Z,6.03
2022-08-26T20:42:45.152Z,6.03
2022-08-26T20:45:14.329Z,5.67
2022-08-26T20:47:42.754Z,6.50
2022-08-26T20:50:14.254Z,6.20
2022-08-26T20:52:42.392Z,5.90
2022-08-26T20:55:12.276Z,6.03
2022-08-26T20:57:43.043Z,5.40
2022-08-26T21:00:14.082Z,5.47
2022-08-26T21:02:43.623Z,5.17
2022-08-26T21:05:11.732Z,5.00
2022-08-26T21:07:40.021Z,4.73
2022-08-26T21:10:13.469Z,5.33
2022-08-26T21:12:41.591Z,5.40
2022-08-26T21:15:13.221Z,5.30
2022-08-26T21:17:41.407Z,4.60
2022-08-26T21:20:10.206Z,5.37
2022-08-26T21:22:38.299Z,4.90
2022-08-26T21:25:07.307Z,5.57
2022-08-26T21:27:37.969Z,5.23
2022-08-26T21:30:09.346Z,4.83
2022-08-26T21:32:38.418Z,5.00
2022-08-26T21:35:09.586Z,4.60
2022-08-26T21:37:37.656Z,5.23
2022-08-26T21:40:09.606Z,5.40
2022-08-26T21:42:39.066Z,4.83
2022-08-26T21:45:08.884Z,5.40
2022-08-26T21:47:40.574Z,5.00
2022-08-26T21:50:09.163Z,5.13
2022-08-26T21:52:40.147Z,4.80
2022-08-26T21:55:09.270Z,4.80
2022-08-26T21:57:41.321Z,5.13
2022-08-26T22:00:15.829Z,4.67
2022-08-26T22:02:46.500Z,5.00
2022-08-26T22:05:14.762Z,4.93
2022-08-26T22:07:42.901Z,4.57
2022-08-26T22:10:11.280Z,5.23
2022-08-26T22:12:41.739Z,4.90
2022-08-26T22:15:13.219Z,5.43
2022-08-26T22:17:41.289Z,5.00
2022-08-26T22:20:16.510Z,5.13
2022-08-26T22:22:45.023Z,5.90
2022-08-26T22:25:15.467Z,5.80
2022-08-26T22:27:44.899Z,5.47
2022-08-26T22:30:16.029Z,5.17
2022-08-26T22:32:45.592Z,5.13
2022-08-26T22:35:29.160Z,5.87
2022-08-26T22:38:00.556Z,5.47
2022-08-26T22:40:28.727Z,4.97
2022-08-26T22:43:00.224Z,4.93
2022-08-26T22:45:31.273Z,4.63
2022-08-26T22:47:59.634Z,4.87
2022-08-26T22:50:27.862Z,5.43
2022-08-26T22:52:55.991Z,5.30
2022-08-26T22:55:24.123Z,5.93
2022-08-26T22:57:52.294Z,4.87
2022-08-26T23:00:21.990Z,4.73
2022-08-26T23:03:04.251Z,5.43
2022-08-26T23:05:33.299Z,5.43
2022-08-26T23:08:01.829Z,5.20
2022-08-26T23:10:33.165Z,5.30
2022-08-26T23:13:04.176Z,5.80
2022-08-26T23:15:33.743Z,5.10
2022-08-26T23:18:01.946Z,5.43
2022-08-26T23:20:30.743Z,5.20
2022-08-26T23:22:58.940Z,5.20
2022-08-26T23:25:27.970Z,5.13
2022-08-26T23:27:56.655Z,4.70
2022-08-26T23:30:27.483Z,5.30
2022-08-26T23:33:00.032Z,4.87
2022-08-26T23:35:28.674Z,5.20
2022-08-26T23:37:59.597Z,5.20
2022-08-26T23:40:30.624Z,5.30
2022-08-26T23:43:00.618Z,5.50
2022-08-26T23:45:29.283Z,5.70
2022-08-26T23:47:57.487Z,5.03
2022-08-26T23:50:46.234Z,6.00
2022-08-26T23:53:19.390Z,5.47
2022-08-26T23:55:49.198Z,5.03
2022-08-26T23:58:18.446Z,4.77
